sensor_id;sensor_type;location;lat;lon;timestamp;P1;durP1;ratioP1;P2;durP2;ratioP2
29370;SDS011;16357;52.188;7.838;2022-08-07T00:02:10;3.50;;;2.85;;
29370;SDS011;16357;52.188;7.838;2022-08-07T00:04:56;5.57;;;2.72;;
29370;SDS011;16357;52.188;7.838;2022-08-07T00:07:23;4.38;;;3.15;;
29370;SDS011;16357;52.188;7.838;2022-08-07T00:10:02;4.07;;;2.60;;
29370;SDS011;16357;52.188;7.838;2022-08-07T00:12:49;3.33;;;2.60;;
29370;SDS011;16357;52.188;7.838;2022-08-07T00:15:26;5.50;;;2.42;;
29370;SDS011;16357;52.188;7.838;2022-08-07T00:18:12;2.55;;;2.25;;
29370;SDS011;16357;52.188;7.838;2022-08-07T00:20:45;3.35;;;2.35;;
29370;SDS011;16357;52.188;7.838;2022-08-07T00:23:12;4.20;;;2.47;;
29370;SDS011;16357;52.188;7.838;2022-08-07T00:25:42;3.55;;;2.35;;
29370;SDS011;16357;52.188;7.838;2022-08-07T00:28:11;5.22;;;2.88;;
29370;SDS011;16357;52.188;7.838;2022-08-07T00:30:40;4.32;;;2.80;;
29370;SDS011;16357;52.188;7.838;2022-08-07T00:33:07;3.13;;;2.72;;
29370;SDS011;16357;52.188;7.838;2022-08-07T00:35:36;4.38;;;2.65;;
29370;SDS011;16357;52.188;7.838;2022-08-07T00:38:06;4.65;;;3.05;;
29370;SDS011;16357;52.188;7.838;2022-08-07T00:40:38;4.80;;;2.75;;
29370;SDS011;16357;52.188;7.838;2022-08-07T00:43:09;4.30;;;2.63;;
29370;SDS011;16357;52.188;7.838;2022-08-07T00:45:59;4.72;;;3.10;;
29370;SDS011;16357;52.188;7.838;2022-08-07T00:48:28;5.15;;;3.00;;
29370;SDS011;16357;52.188;7.838;2022-08-07T00:50:57;5.13;;;3.13;;
29370;SDS011;16357;52.188;7.838;2022-08-07T00:53:25;4.93;;;3.22;;
29370;SDS011;16357;52.188;7.838;2022-08-07T00:56:03;7.32;;;3.35;;
29370;SDS011;16357;52.188;7.838;2022-08-07T00:58:42;6.93;;;3.00;;
29370;SDS011;16357;52.188;7.838;2022-08-07T01:01:14;3.80;;;3.00;;
29370;SDS011;16357;52.188;7.838;2022-08-07T01:03:43;4.07;;;2.88;;
29370;SDS011;16357;52.188;7.838;2022-08-07T01:06:25;3.58;;;2.85;;
29370;SDS011;16357;52.188;7.838;2022-08-07T01:08:56;4.05;;;3.05;;
29370;SDS011;16357;52.188;7.838;2022-08-07T01:11:27;4.30;;;2.83;;
29370;SDS011;16357;52.188;7.838;2022-08-07T01:14:18;3.60;;;2.65;;
29370;SDS011;16357;52.188;7.838;2022-08-07T01:19:20;4.72;;;2.53;;
29370;SDS011;16357;52.188;7.838;2022-08-07T01:21:48;4.50;;;3.08;;
29370;SDS011;16357;52.188;7.838;2022-08-07T01:24:22;3.58;;;2.55;;
29370;SDS011;16357;52.188;7.838;2022-08-07T01:26:49;5.43;;;3.33;;
29370;SDS011;16357;52.188;7.838;2022-08-07T01:29:21;5.32;;;3.25;;
29370;SDS011;16357;52.188;7.838;2022-08-07T01:31:48;5.20;;;3.20;;
29370;SDS011;16357;52.188;7.838;2022-08-07T01:34:15;5.20;;;3.17;;
29370;SDS011;16357;52.188;7.838;2022-08-07T01:36:44;8.10;;;3.80;;
29370;SDS011;16357;52.188;7.838;2022-08-07T01:39:24;3.60;;;2.92;;
29370;SDS011;16357;52.188;7.838;2022-08-07T01:42:11;4.70;;;3.50;;
29370;SDS011;16357;52.188;7.838;2022-08-07T01:44:59;5.18;;;3.50;;
29370;SDS011;16357;52.188;7.838;2022-08-07T01:47:28;4.25;;;3.28;;
29370;SDS011;16357;52.188;7.838;2022-08-07T01:50:15;3.83;;;3.25;;
29370;SDS011;16357;52.188;7.838;2022-08-07T01:52:47;5.90;;;3.38;;
29370;SDS011;16357;52.188;7.838;2022-08-07T01:55:21;5.25;;;3.45;;
29370;SDS011;16357;52.188;7.838;2022-08-07T01:57:58;4.82;;;3.38;;
29370;SDS011;16357;52.188;7.838;2022-08-07T02:00:52;6.55;;;3.70;;
29370;SDS011;16357;52.188;7.838;2022-08-07T02:03:36;4.85;;;3.13;;
29370;SDS011;16357;52.188;7.838;2022-08-07T02:06:16;4.82;;;3.53;;
29370;SDS011;16357;52.188;7.838;2022-08-07T02:08:57;3.63;;;3.17;;
29370;SDS011;16357;52.188;7.838;2022-08-07T02:11:30;5.20;;;3.40;;
29370;SDS011;16357;52.188;7.838;2022-08-07T02:14:23;5.30;;;3.30;;
29370;SDS011;16357;52.188;7.838;2022-08-07T02:17:06;4.70;;;2.92;;
29370;SDS011;16357;52.188;7.838;2022-08-07T02:19:36;5.57;;;3.38;;
29370;SDS011;16357;52.188;7.838;2022-08-07T02:22:24;4.40;;;3.25;;
29370;SDS011;16357;52.188;7.838;2022-08-07T02:24:53;4.88;;;3.40;;
29370;SDS011;16357;52.188;7.838;2022-08-07T02:27:23;6.38;;;4.10;;
29370;SDS011;16357;52.188;7.838;2022-08-07T02:30:00;5.25;;;2.78;;
29370;SDS011;16357;52.188;7.838;2022-08-07T02:32:32;4.28;;;3.38;;
29370;SDS011;16357;52.188;7.838;2022-08-07T02:35:04;4.93;;;3.35;;
29370;SDS011;16357;52.188;7.838;2022-08-07T02:37:35;5.63;;;3.70;;
29370;SDS011;16357;52.188;7.838;2022-08-07T02:40:09;6.30;;;3.37;;
29370;SDS011;16357;52.188;7.838;2022-08-07T02:42:55;6.45;;;3.65;;
29370;SDS011;16357;52.188;7.838;2022-08-07T02:45:23;4.90;;;3.30;;
29370;SDS011;16357;52.188;7.838;2022-08-07T02:48:13;6.22;;;3.53;;
29370;SDS011;16357;52.188;7.838;2022-08-07T02:50:41;3.95;;;3.38;;
29370;SDS011;16357;52.188;7.838;2022-08-07T02:53:20;4.20;;;3.42;;
29370;SDS011;16357;52.188;7.838;2022-08-07T02:55:52;5.00;;;3.90;;
29370;SDS011;16357;52.188;7.838;2022-08-07T02:58:31;5.32;;;3.58;;
29370;SDS011;16357;52.188;7.838;2022-08-07T03:00:59;5.07;;;3.60;;
29370;SDS011;16357;52.188;7.838;2022-08-07T03:03:29;7.15;;;3.90;;
29370;SDS011;16357;52.188;7.838;2022-08-07T03:06:15;4.65;;;3.60;;
29370;SDS011;16357;52.188;7.838;2022-08-07T03:08:59;4.72;;;3.60;;
29370;SDS011;16357;52.188;7.838;2022-08-07T03:11:27;4.88;;;3.72;;
29370;SDS011;16357;52.188;7.838;2022-08-07T03:14:04;4.20;;;3.45;;
29370;SDS011;16357;52.188;7.838;2022-08-07T03:16:31;5.70;;;3.85;;
29370;SDS011;16357;52.188;7.838;2022-08-07T03:18:59;4.25;;;3.22;;
29370;SDS011;16357;52.188;7.838;2022-08-07T03:21:26;4.63;;;3.30;;
29370;SDS011;16357;52.188;7.838;2022-08-07T03:23:58;4.45;;;3.42;;
29370;SDS011;16357;52.188;7.838;2022-08-07T03:26:45;4.85;;;3.47;;
29370;SDS011;16357;52.188;7.838;2022-08-07T03:29:36;5.75;;;3.92;;
29370;SDS011;16357;52.188;7.838;2022-08-07T03:32:16;5.32;;;3.55;;
29370;SDS011;16357;52.188;7.838;2022-08-07T03:34:48;4.22;;;3.35;;
29370;SDS011;16357;52.188;7.838;2022-08-07T03:37:38;4.32;;;3.35;;
29370;SDS011;16357;52.188;7.838;2022-08-07T03:40:19;4.82;;;3.58;;
29370;SDS011;16357;52.188;7.838;2022-08-07T03:42:47;6.85;;;3.60;;
29370;SDS011;16357;52.188;7.838;2022-08-07T03:45:16;4.20;;;3.50;;
29370;SDS011;16357;52.188;7.838;2022-08-07T03:47:56;5.55;;;3.80;;
29370;SDS011;16357;52.188;7.838;2022-08-07T03:50:24;4.43;;;3.42;;
29370;SDS011;16357;52.188;7.838;2022-08-07T03:52:54;5.35;;;3.78;;
29370;SDS011;16357;52.188;7.838;2022-08-07T03:55:23;4.30;;;3.53;;
29370;SDS011;16357;52.188;7.838;2022-08-07T03:58:11;6.20;;;3.67;;
29370;SDS011;16357;52.188;7.838;2022-08-07T04:00:58;5.60;;;3.50;;
29370;SDS011;16357;52.188;7.838;2022-08-07T04:03:26;4.50;;;3.90;;
29370;SDS011;16357;52.188;7.838;2022-08-07T04:06:13;4.50;;;3.67;;
29370;SDS011;16357;52.188;7.838;2022-08-07T04:11:27;5.07;;;3.80;;
29370;SDS011;16357;52.188;7.838;2022-08-07T04:14:14;4.63;;;3.70;;
29370;SDS011;16357;52.188;7.838;2022-08-07T04:17:01;4.57;;;3.70;;
29370;SDS011;16357;52.188;7.838;2022-08-07T04:19:29;6.97;;;4.40;;
29370;SDS011;16357;52.188;7.838;2022-08-07T04:22:16;4.50;;;3.85;;
29370;SDS011;16357;52.188;7.838;2022-08-07T04:24:44;3.95;;;3.55;;
29370;SDS011;16357;52.188;7.838;2022-08-07T04:27:15;5.60;;;3.90;;
29370;SDS011;16357;52.188;7.838;2022-08-07T04:29:51;5.22;;;3.92;;
29370;SDS011;16357;52.188;7.838;2022-08-07T04:32:28;8.02;;;3.97;;
29370;SDS011;16357;52.188;7.838;2022-08-07T04:35:03;4.82;;;3.47;;
29370;SDS011;16357;52.188;7.838;2022-08-07T04:37:36;6.28;;;4.10;;
29370;SDS011;16357;52.188;7.838;2022-08-07T04:40:24;5.03;;;4.03;;
29370;SDS011;16357;52.188;7.838;2022-08-07T04:42:56;6.97;;;4.15;;
29370;SDS011;16357;52.188;7.838;2022-08-07T04:45:28;7.70;;;4.47;;
29370;SDS011;16357;52.188;7.838;2022-08-07T04:48:39;5.95;;;4.60;;
29370;SDS011;16357;52.188;7.838;2022-08-07T04:57:01;6.20;;;4.47;;
29370;SDS011;16357;52.188;7.838;2022-08-07T05:00:06;7.45;;;4.35;;
29370;SDS011;16357;52.188;7.838;2022-08-07T05:02:57;5.15;;;4.05;;
29370;SDS011;16357;52.188;7.838;2022-08-07T05:11:32;7.25;;;4.32;;
29370;SDS011;16357;52.188;7.838;2022-08-07T05:14:31;5.68;;;4.13;;
29370;SDS011;16357;52.188;7.838;2022-08-07T05:17:21;5.35;;;4.20;;
29370;SDS011;16357;52.188;7.838;2022-08-07T05:20:11;7.15;;;4.32;;
29370;SDS011;16357;52.188;7.838;2022-08-07T05:22:42;5.35;;;4.03;;
29370;SDS011;16357;52.188;7.838;2022-08-07T05:25:13;5.50;;;4.00;;
29370;SDS011;16357;52.188;7.838;2022-08-07T05:28:01;6.32;;;4.18;;
29370;SDS011;16357;52.188;7.838;2022-08-07T05:30:47;5.18;;;4.30;;
29370;SDS011;16357;52.188;7.838;2022-08-07T05:33:17;5.75;;;4.00;;
29370;SDS011;16357;52.188;7.838;2022-08-07T05:35:46;6.95;;;3.85;;
29370;SDS011;16357;52.188;7.838;2022-08-07T05:38:16;5.97;;;3.83;;
29370;SDS011;16357;52.188;7.838;2022-08-07T05:41:05;6.28;;;3.60;;
29370;SDS011;16357;52.188;7.838;2022-08-07T05:43:46;5.38;;;3.72;;
29370;SDS011;16357;52.188;7.838;2022-08-07T05:46:36;5.45;;;3.45;;
29370;SDS011;16357;52.188;7.838;2022-08-07T05:49:04;6.28;;;4.28;;
29370;SDS011;16357;52.188;7.838;2022-08-07T05:51:37;5.57;;;3.97;;
29370;SDS011;16357;52.188;7.838;2022-08-07T05:54:05;7.10;;;4.05;;
29370;SDS011;16357;52.188;7.838;2022-08-07T05:56:53;5.20;;;3.60;;
29370;SDS011;16357;52.188;7.838;2022-08-07T05:59:21;10.38;;;4.10;;
29370;SDS011;16357;52.188;7.838;2022-08-07T06:01:52;8.35;;;4.18;;
29370;SDS011;16357;52.188;7.838;2022-08-07T06:04:22;7.32;;;4.40;;
29370;SDS011;16357;52.188;7.838;2022-08-07T06:06:56;6.82;;;3.80;;
29370;SDS011;16357;52.188;7.838;2022-08-07T06:09:29;5.35;;;3.65;;
29370;SDS011;16357;52.188;7.838;2022-08-07T06:12:17;6.20;;;4.20;;
29370;SDS011;16357;52.188;7.838;2022-08-07T06:14:53;3.88;;;3.50;;
29370;SDS011;16357;52.188;7.838;2022-08-07T06:17:23;5.68;;;4.28;;
29370;SDS011;16357;52.188;7.838;2022-08-07T06:20:02;5.32;;;4.03;;
29370;SDS011;16357;52.188;7.838;2022-08-07T06:22:30;4.78;;;3.30;;
29370;SDS011;16357;52.188;7.838;2022-08-07T06:25:05;4.50;;;3.95;;
29370;SDS011;16357;52.188;7.838;2022-08-07T06:27:35;7.78;;;4.10;;
29370;SDS011;16357;52.188;7.838;2022-08-07T06:30:22;5.80;;;4.05;;
29370;SDS011;16357;52.188;7.838;2022-08-07T06:33:02;4.88;;;3.25;;
29370;SDS011;16357;52.188;7.838;2022-08-07T06:35:30;3.88;;;3.33;;
29370;SDS011;16357;52.188;7.838;2022-08-07T06:38:17;3.95;;;3.00;;
29370;SDS011;16357;52.188;7.838;2022-08-07T06:40:46;4.70;;;3.40;;
29370;SDS011;16357;52.188;7.838;2022-08-07T06:43:17;4.68;;;3.35;;
29370;SDS011;16357;52.188;7.838;2022-08-07T06:45:49;4.43;;;3.35;;
29370;SDS011;16357;52.188;7.838;2022-08-07T06:48:16;3.50;;;2.55;;
29370;SDS011;16357;52.188;7.838;2022-08-07T06:50:50;3.78;;;2.65;;
29370;SDS011;16357;52.188;7.838;2022-08-07T06:53:19;4.78;;;2.60;;
29370;SDS011;16357;52.188;7.838;2022-08-07T06:56:08;3.60;;;2.33;;
29370;SDS011;16357;52.188;7.838;2022-08-07T06:58:40;4.15;;;2.72;;
29370;SDS011;16357;52.188;7.838;2022-08-07T07:01:28;3.80;;;2.55;;
29370;SDS011;16357;52.188;7.838;2022-08-07T07:04:16;5.80;;;2.40;;
29370;SDS011;16357;52.188;7.838;2022-08-07T07:06:59;2.85;;;2.45;;
29370;SDS011;16357;52.188;7.838;2022-08-07T07:09:44;3.53;;;2.00;;
29370;SDS011;16357;52.188;7.838;2022-08-07T07:15:00;2.88;;;2.13;;
29370;SDS011;16357;52.188;7.838;2022-08-07T07:18:03;3.10;;;1.95;;
29370;SDS011;16357;52.188;7.838;2022-08-07T07:21:05;2.92;;;1.65;;
29370;SDS011;16357;52.188;7.838;2022-08-07T07:23:44;2.80;;;1.80;;
29370;SDS011;16357;52.188;7.838;2022-08-07T07:26:31;2.40;;;1.70;;
29370;SDS011;16357;52.188;7.838;2022-08-07T07:29:04;4.68;;;1.88;;
29370;SDS011;16357;52.188;7.838;2022-08-07T07:31:56;1.95;;;1.75;;
29370;SDS011;16357;52.188;7.838;2022-08-07T07:34:26;3.08;;;1.90;;
29370;SDS011;16357;52.188;7.838;2022-08-07T07:36:57;3.38;;;1.88;;
29370;SDS011;16357;52.188;7.838;2022-08-07T07:39:47;2.20;;;1.88;;
29370;SDS011;16357;52.188;7.838;2022-08-07T07:42:21;2.97;;;1.88;;
29370;SDS011;16357;52.188;7.838;2022-08-07T07:44:58;3.47;;;2.03;;
29370;SDS011;16357;52.188;7.838;2022-08-07T07:47:27;2.72;;;1.70;;
29370;SDS011;16357;52.188;7.838;2022-08-07T07:50:08;2.50;;;1.80;;
29370;SDS011;16357;52.188;7.838;2022-08-07T07:52:57;3.00;;;1.73;;
29370;SDS011;16357;52.188;7.838;2022-08-07T07:55:26;2.78;;;1.60;;
29370;SDS011;16357;52.188;7.838;2022-08-07T07:58:10;2.30;;;1.70;;
29370;SDS011;16357;52.188;7.838;2022-08-07T08:00:38;1.90;;;1.38;;
29370;SDS011;16357;52.188;7.838;2022-08-07T08:03:11;2.42;;;1.40;;
29370;SDS011;16357;52.188;7.838;2022-08-07T08:06:01;1.90;;;1.30;;
29370;SDS011;16357;52.188;7.838;2022-08-07T08:08:29;2.25;;;1.50;;
29370;SDS011;16357;52.188;7.838;2022-08-07T08:11:04;2.45;;;1.40;;
29370;SDS011;16357;52.188;7.838;2022-08-07T08:13:33;1.58;;;1.05;;
29370;SDS011;16357;52.188;7.838;2022-08-07T08:16:21;1.73;;;1.08;;
29370;SDS011;16357;52.188;7.838;2022-08-07T08:18:56;4.75;;;1.33;;
29370;SDS011;16357;52.188;7.838;2022-08-07T08:21:36;1.90;;;1.05;;
29370;SDS011;16357;52.188;7.838;2022-08-07T08:24:30;2.38;;;0.70;;
29370;SDS011;16357;52.188;7.838;2022-08-07T08:27:39;1.65;;;0.70;;
29370;SDS011;16357;52.188;7.838;2022-08-07T08:30:21;0.98;;;0.80;;
29370;SDS011;16357;52.188;7.838;2022-08-07T08:32:54;1.35;;;0.90;;
29370;SDS011;16357;52.188;7.838;2022-08-07T08:35:25;1.17;;;0.85;;
29370;SDS011;16357;52.188;7.838;2022-08-07T08:38:04;2.42;;;0.98;;
29370;SDS011;16357;52.188;7.838;2022-08-07T08:40:39;1.65;;;1.00;;
29370;SDS011;16357;52.188;7.838;2022-08-07T08:43:19;1.88;;;1.00;;
29370;SDS011;16357;52.188;7.838;2022-08-07T08:49:15;1.83;;;1.00;;
29370;SDS011;16357;52.188;7.838;2022-08-07T08:54:44;1.10;;;0.98;;
29370;SDS011;16357;52.188;7.838;2022-08-07T08:57:16;1.38;;;1.05;;
29370;SDS011;16357;52.188;7.838;2022-08-07T08:59:57;1.80;;;1.23;;
29370;SDS011;16357;52.188;7.838;2022-08-07T09:02:33;2.05;;;0.98;;
29370;SDS011;16357;52.188;7.838;2022-08-07T09:05:29;2.38;;;1.40;;
29370;SDS011;16357;52.188;7.838;2022-08-07T09:08:16;1.70;;;0.95;;
29370;SDS011;16357;52.188;7.838;2022-08-07T09:19:19;3.00;;;1.70;;
29370;SDS011;16357;52.188;7.838;2022-08-07T09:30:28;1.70;;;1.10;;
29370;SDS011;16357;52.188;7.838;2022-08-07T09:33:10;1.15;;;0.80;;
29370;SDS011;16357;52.188;7.838;2022-08-07T09:36:06;2.03;;;1.00;;
29370;SDS011;16357;52.188;7.838;2022-08-07T09:38:52;2.65;;;0.90;;
29370;SDS011;16357;52.188;7.838;2022-08-07T09:44:51;1.90;;;1.10;;
29370;SDS011;16357;52.188;7.838;2022-08-07T09:54:05;3.22;;;0.95;;
29370;SDS011;16357;52.188;7.838;2022-08-07T10:02:10;1.13;;;0.90;;
29370;SDS011;16357;52.188;7.838;2022-08-07T10:04:48;0.70;;;0.70;;
29370;SDS011;16357;52.188;7.838;2022-08-07T10:19:41;0.85;;;0.70;;
29370;SDS011;16357;52.188;7.838;2022-08-07T10:28:49;2.40;;;1.25;;
29370;SDS011;16357;52.188;7.838;2022-08-07T10:37:26;1.25;;;0.80;;
29370;SDS011;16357;52.188;7.838;2022-08-07T10:40:18;1.38;;;0.98;;
29370;SDS011;16357;52.188;7.838;2022-08-07T10:45:56;1.10;;;0.75;;
29370;SDS011;16357;52.188;7.838;2022-08-07T10:48:29;0.77;;;0.60;;
29370;SDS011;16357;52.188;7.838;2022-08-07T10:51:09;0.80;;;0.70;;
29370;SDS011;16357;52.188;7.838;2022-08-07T10:54:18;2.13;;;0.80;;
29370;SDS011;16357;52.188;7.838;2022-08-07T11:02:36;2.97;;;1.08;;
29370;SDS011;16357;52.188;7.838;2022-08-07T11:11:00;1.20;;;0.90;;
29370;SDS011;16357;52.188;7.838;2022-08-07T11:16:58;1.05;;;0.90;;
29370;SDS011;16357;52.188;7.838;2022-08-07T11:25:29;1.83;;;0.90;;
29370;SDS011;16357;52.188;7.838;2022-08-07T11:28:16;0.80;;;0.75;;
29370;SDS011;16357;52.188;7.838;2022-08-07T11:33:22;2.35;;;1.02;;
29370;SDS011;16357;52.188;7.838;2022-08-07T11:36:32;0.98;;;0.70;;
29370;SDS011;16357;52.188;7.838;2022-08-07T11:39:08;2.20;;;0.80;;
29370;SDS011;16357;52.188;7.838;2022-08-07T11:42:20;1.13;;;0.90;;
29370;SDS011;16357;52.188;7.838;2022-08-07T11:53:39;2.30;;;0.70;;
29370;SDS011;16357;52.188;7.838;2022-08-07T12:02:32;2.72;;;1.08;;
29370;SDS011;16357;52.188;7.838;2022-08-07T12:08:22;3.20;;;1.00;;
29370;SDS011;16357;52.188;7.838;2022-08-07T12:11:14;2.55;;;0.98;;
29370;SDS011;16357;52.188;7.838;2022-08-07T12:13:59;1.05;;;0.85;;
29370;SDS011;16357;52.188;7.838;2022-08-07T12:16:45;1.00;;;0.90;;
29370;SDS011;16357;52.188;7.838;2022-08-07T12:22:34;1.83;;;1.13;;
29370;SDS011;16357;52.188;7.838;2022-08-07T12:25:33;1.10;;;0.93;;
29370;SDS011;16357;52.188;7.838;2022-08-07T12:28:41;1.80;;;1.30;;
29370;SDS011;16357;52.188;7.838;2022-08-07T12:31:33;2.72;;;1.40;;
29370;SDS011;16357;52.188;7.838;2022-08-07T12:34:30;3.08;;;2.00;;
29370;SDS011;16357;52.188;7.838;2022-08-07T12:37:00;1.73;;;1.40;;
29370;SDS011;16357;52.188;7.838;2022-08-07T12:39:43;1.38;;;1.27;;
29370;SDS011;16357;52.188;7.838;2022-08-07T12:42:17;1.20;;;0.90;;
29370;SDS011;16357;52.188;7.838;2022-08-07T12:44:53;1.35;;;1.00;;
29370;SDS011;16357;52.188;7.838;2022-08-07T12:53:24;0.95;;;0.77;;
29370;SDS011;16357;52.188;7.838;2022-08-07T12:56:25;1.42;;;1.00;;
29370;SDS011;16357;52.188;7.838;2022-08-07T12:58:58;3.70;;;1.38;;
29370;SDS011;16357;52.188;7.838;2022-08-07T13:01:36;1.73;;;1.00;;
29370;SDS011;16357;52.188;7.838;2022-08-07T13:12:55;1.33;;;1.00;;
29370;SDS011;16357;52.188;7.838;2022-08-07T13:18:56;2.10;;;1.00;;
29370;SDS011;16357;52.188;7.838;2022-08-07T13:21:29;2.22;;;0.93;;
29370;SDS011;16357;52.188;7.838;2022-08-07T13:27:26;1.52;;;1.08;;
29370;SDS011;16357;52.188;7.838;2022-08-07T13:30:18;1.02;;;0.85;;
29370;SDS011;16357;52.188;7.838;2022-08-07T13:33:10;1.45;;;0.95;;
29370;SDS011;16357;52.188;7.838;2022-08-07T13:36:12;1.52;;;1.00;;
29370;SDS011;16357;52.188;7.838;2022-08-07T13:42:01;3.63;;;1.17;;
29370;SDS011;16357;52.188;7.838;2022-08-07T13:44:31;1.52;;;0.90;;
29370;SDS011;16357;52.188;7.838;2022-08-07T13:47:02;1.15;;;0.93;;
29370;SDS011;16357;52.188;7.838;2022-08-07T13:49:36;1.38;;;1.00;;
29370;SDS011;16357;52.188;7.838;2022-08-07T13:52:28;1.50;;;1.00;;
29370;SDS011;16357;52.188;7.838;2022-08-07T13:55:10;0.98;;;0.88;;
29370;SDS011;16357;52.188;7.838;2022-08-07T13:57:52;2.25;;;0.93;;
29370;SDS011;16357;52.188;7.838;2022-08-07T14:00:57;1.17;;;0.88;;
29370;SDS011;16357;52.188;7.838;2022-08-07T14:03:35;1.95;;;1.02;;
29370;SDS011;16357;52.188;7.838;2022-08-07T14:06:33;1.25;;;0.90;;
29370;SDS011;16357;52.188;7.838;2022-08-07T14:09:04;1.50;;;1.00;;
29370;SDS011;16357;52.188;7.838;2022-08-07T14:11:35;1.35;;;0.85;;
29370;SDS011;16357;52.188;7.838;2022-08-07T14:14:29;1.25;;;1.00;;
29370;SDS011;16357;52.188;7.838;2022-08-07T14:17:00;1.15;;;1.00;;
29370;SDS011;16357;52.188;7.838;2022-08-07T14:22:38;4.55;;;1.20;;
29370;SDS011;16357;52.188;7.838;2022-08-07T14:25:11;1.45;;;1.00;;
29370;SDS011;16357;52.188;7.838;2022-08-07T14:27:42;1.42;;;0.98;;
29370;SDS011;16357;52.188;7.838;2022-08-07T14:30:31;1.45;;;0.90;;
29370;SDS011;16357;52.188;7.838;2022-08-07T14:33:00;1.50;;;1.13;;
29370;SDS011;16357;52.188;7.838;2022-08-07T14:35:31;1.88;;;1.33;;
29370;SDS011;16357;52.188;7.838;2022-08-07T14:38:13;1.85;;;0.93;;
29370;SDS011;16357;52.188;7.838;2022-08-07T14:41:02;1.30;;;0.80;;
29370;SDS011;16357;52.188;7.838;2022-08-07T14:43:41;2.53;;;1.00;;
29370;SDS011;16357;52.188;7.838;2022-08-07T14:46:27;0.88;;;0.88;;
29370;SDS011;16357;52.188;7.838;2022-08-07T14:48:59;1.33;;;0.80;;
29370;SDS011;16357;52.188;7.838;2022-08-07T14:51:46;0.90;;;0.90;;
29370;SDS011;16357;52.188;7.838;2022-08-07T14:54:36;1.70;;;0.90;;
29370;SDS011;16357;52.188;7.838;2022-08-07T14:57:24;1.88;;;1.00;;
29370;SDS011;16357;52.188;7.838;2022-08-07T15:00:12;1.10;;;1.00;;
29370;SDS011;16357;52.188;7.838;2022-08-07T15:03:01;1.02;;;0.93;;
29370;SDS011;16357;52.188;7.838;2022-08-07T15:05:45;1.10;;;0.90;;
29370;SDS011;16357;52.188;7.838;2022-08-07T15:08:21;1.58;;;0.93;;
29370;SDS011;16357;52.188;7.838;2022-08-07T15:11:13;1.40;;;1.20;;
29370;SDS011;16357;52.188;7.838;2022-08-07T15:14:02;1.77;;;0.95;;
29370;SDS011;16357;52.188;7.838;2022-08-07T15:16:46;1.42;;;0.90;;
29370;SDS011;16357;52.188;7.838;2022-08-07T15:19:27;1.77;;;0.93;;
29370;SDS011;16357;52.188;7.838;2022-08-07T15:22:18;1.73;;;1.00;;
29370;SDS011;16357;52.188;7.838;2022-08-07T15:25:10;2.45;;;1.10;;
29370;SDS011;16357;52.188;7.838;2022-08-07T15:27:46;1.40;;;1.17;;
29370;SDS011;16357;52.188;7.838;2022-08-07T15:30:36;2.25;;;0.90;;
29370;SDS011;16357;52.188;7.838;2022-08-07T15:33:23;1.45;;;0.93;;
29370;SDS011;16357;52.188;7.838;2022-08-07T15:36:01;1.55;;;1.30;;
29370;SDS011;16357;52.188;7.838;2022-08-07T15:38:50;2.75;;;1.20;;
29370;SDS011;16357;52.188;7.838;2022-08-07T15:41:47;1.95;;;1.00;;
29370;SDS011;16357;52.188;7.838;2022-08-07T15:44:45;1.90;;;1.07;;
29370;SDS011;16357;52.188;7.838;2022-08-07T15:47:17;1.75;;;1.00;;
29370;SDS011;16357;52.188;7.838;2022-08-07T15:50:07;1.60;;;1.20;;
29370;SDS011;16357;52.188;7.838;2022-08-07T15:52:59;1.58;;;1.00;;
29370;SDS011;16357;52.188;7.838;2022-08-07T15:55:30;1.90;;;1.10;;
29370;SDS011;16357;52.188;7.838;2022-08-07T15:58:20;1.85;;;1.30;;
29370;SDS011;16357;52.188;7.838;2022-08-07T16:00:57;1.95;;;1.17;;
29370;SDS011;16357;52.188;7.838;2022-08-07T16:03:25;1.77;;;1.20;;
29370;SDS011;16357;52.188;7.838;2022-08-07T16:06:12;4.15;;;1.08;;
29370;SDS011;16357;52.188;7.838;2022-08-07T16:08:41;1.90;;;1.25;;
29370;SDS011;16357;52.188;7.838;2022-08-07T16:17:06;1.20;;;1.05;;
29370;SDS011;16357;52.188;7.838;2022-08-07T16:20:28;1.33;;;1.10;;
29370;SDS011;16357;52.188;7.838;2022-08-07T16:29:01;1.55;;;1.10;;
29370;SDS011;16357;52.188;7.838;2022-08-07T16:32:09;2.08;;;1.30;;
29370;SDS011;16357;52.188;7.838;2022-08-07T16:35:06;1.77;;;1.02;;
29370;SDS011;16357;52.188;7.838;2022-08-07T16:38:05;1.60;;;1.10;;
29370;SDS011;16357;52.188;7.838;2022-08-07T16:46:28;2.78;;;1.30;;
29370;SDS011;16357;52.188;7.838;2022-08-07T16:58:25;2.13;;;1.20;;
29370;SDS011;16357;52.188;7.838;2022-08-07T17:01:33;1.50;;;0.90;;
29370;SDS011;16357;52.188;7.838;2022-08-07T17:06:55;1.27;;;1.10;;
29370;SDS011;16357;52.188;7.838;2022-08-07T17:12:39;2.15;;;1.17;;
29370;SDS011;16357;52.188;7.838;2022-08-07T17:17:51;1.67;;;1.15;;
29370;SDS011;16357;52.188;7.838;2022-08-07T17:23:26;1.17;;;1.08;;
29370;SDS011;16357;52.188;7.838;2022-08-07T17:31:39;1.65;;;1.30;;
29370;SDS011;16357;52.188;7.838;2022-08-07T17:40:22;1.95;;;1.40;;
29370;SDS011;16357;52.188;7.838;2022-08-07T17:43:22;2.30;;;1.25;;
29370;SDS011;16357;52.188;7.838;2022-08-07T17:46:16;1.67;;;1.30;;
29370;SDS011;16357;52.188;7.838;2022-08-07T17:49:12;1.58;;;1.30;;
29370;SDS011;16357;52.188;7.838;2022-08-07T17:51:51;2.35;;;1.30;;
29370;SDS011;16357;52.188;7.838;2022-08-07T17:54:44;1.33;;;1.23;;
29370;SDS011;16357;52.188;7.838;2022-08-07T17:57:23;1.40;;;1.30;;
29370;SDS011;16357;52.188;7.838;2022-08-07T18:00:18;1.65;;;1.25;;
29370;SDS011;16357;52.188;7.838;2022-08-07T18:05:44;1.83;;;1.48;;
29370;SDS011;16357;52.188;7.838;2022-08-07T18:11:33;2.22;;;1.30;;
29370;SDS011;16357;52.188;7.838;2022-08-07T18:20:12;2.03;;;1.15;;
29370;SDS011;16357;52.188;7.838;2022-08-07T18:23:05;3.65;;;1.15;;
29370;SDS011;16357;52.188;7.838;2022-08-07T18:25:58;1.70;;;1.30;;
29370;SDS011;16357;52.188;7.838;2022-08-07T18:28:34;1.48;;;1.17;;
29370;SDS011;16357;52.188;7.838;2022-08-07T18:47:04;1.52;;;1.42;;
29370;SDS011;16357;52.188;7.838;2022-08-07T18:53:12;2.40;;;1.35;;
29370;SDS011;16357;52.188;7.838;2022-08-07T18:59:35;2.38;;;1.65;;
29370;SDS011;16357;52.188;7.838;2022-08-07T19:05:31;2.00;;;1.50;;
29370;SDS011;16357;52.188;7.838;2022-08-07T19:08:27;1.70;;;1.33;;
29370;SDS011;16357;52.188;7.838;2022-08-07T19:16:33;2.13;;;1.40;;
29370;SDS011;16357;52.188;7.838;2022-08-07T19:19:37;1.80;;;1.40;;
29370;SDS011;16357;52.188;7.838;2022-08-07T19:22:19;1.80;;;1.50;;
29370;SDS011;16357;52.188;7.838;2022-08-07T19:24:58;2.63;;;1.50;;
29370;SDS011;16357;52.188;7.838;2022-08-07T19:27:34;1.80;;;1.50;;
29370;SDS011;16357;52.188;7.838;2022-08-07T19:30:30;1.77;;;1.50;;
29370;SDS011;16357;52.188;7.838;2022-08-07T19:33:20;3.40;;;1.40;;
29370;SDS011;16357;52.188;7.838;2022-08-07T19:36:00;2.45;;;1.80;;
29370;SDS011;16357;52.188;7.838;2022-08-07T19:38:28;2.63;;;1.40;;
29370;SDS011;16357;52.188;7.838;2022-08-07T19:40:59;2.08;;;1.60;;
29370;SDS011;16357;52.188;7.838;2022-08-07T19:43:32;2.95;;;1.40;;
29370;SDS011;16357;52.188;7.838;2022-08-07T19:46:17;2.08;;;1.60;;
29370;SDS011;16357;52.188;7.838;2022-08-07T19:49:04;2.58;;;1.90;;
29370;SDS011;16357;52.188;7.838;2022-08-07T19:51:39;2.03;;;1.80;;
29370;SDS011;16357;52.188;7.838;2022-08-07T19:54:25;4.38;;;1.70;;
29370;SDS011;16357;52.188;7.838;2022-08-07T19:57:15;1.83;;;1.63;;
29370;SDS011;16357;52.188;7.838;2022-08-07T20:00:08;2.28;;;1.42;;
29370;SDS011;16357;52.188;7.838;2022-08-07T20:03:00;2.53;;;1.65;;
29370;SDS011;16357;52.188;7.838;2022-08-07T20:05:53;2.63;;;1.40;;
29370;SDS011;16357;52.188;7.838;2022-08-07T20:08:30;2.00;;;1.55;;
29370;SDS011;16357;52.188;7.838;2022-08-07T20:11:01;2.88;;;1.65;;
29370;SDS011;16357;52.188;7.838;2022-08-07T20:13:49;4.18;;;2.20;;
29370;SDS011;16357;52.188;7.838;2022-08-07T20:16:26;2.05;;;1.70;;
29370;SDS011;16357;52.188;7.838;2022-08-07T20:19:03;2.38;;;1.83;;